sensor_id;sensor_type;location;lat;lon;timestamp;P1;durP1;ratioP1;P2;durP2;ratioP2
17714;SDS011;8977;50.902;4.314;2023-02-15T00:01:57;46.87;;;31.57;;
17714;SDS011;8977;50.902;4.314;2023-02-15T00:04:24;48.80;;;31.70;;
17714;SDS011;8977;50.902;4.314;2023-02-15T00:07:13;50.33;;;31.77;;
17714;SDS011;8977;50.902;4.314;2023-02-15T00:09:40;46.97;;;31.07;;
17714;SDS011;8977;50.902;4.314;2023-02-15T00:12:08;42.87;;;30.60;;
17714;SDS011;8977;50.902;4.314;2023-02-15T00:14:36;45.83;;;30.13;;
17714;SDS011;8977;50.902;4.314;2023-02-15T00:17:02;45.10;;;30.57;;
17714;SDS011;8977;50.902;4.314;2023-02-15T00:19:30;47.83;;;31.13;;
17714;SDS011;8977;50.902;4.314;2023-02-15T00:21:56;47.10;;;30.70;;
17714;SDS011;8977;50.902;4.314;2023-02-15T00:24:25;42.70;;;30.33;;
17714;SDS011;8977;50.902;4.314;2023-02-15T00:26:52;44.53;;;28.83;;
17714;SDS011;8977;50.902;4.314;2023-02-15T00:29:19;44.47;;;30.50;;
17714;SDS011;8977;50.902;4.314;2023-02-15T00:31:46;43.27;;;29.27;;
17714;SDS011;8977;50.902;4.314;2023-02-15T00:34:16;43.47;;;29.63;;
17714;SDS011;8977;50.902;4.314;2023-02-15T00:36:44;41.17;;;27.43;;
17714;SDS011;8977;50.902;4.314;2023-02-15T00:39:11;43.43;;;30.10;;
17714;SDS011;8977;50.902;4.314;2023-02-15T00:41:40;42.27;;;28.43;;
17714;SDS011;8977;50.902;4.314;2023-02-15T00:44:07;43.63;;;27.27;;
17714;SDS011;8977;50.902;4.314;2023-02-15T00:46:34;42.53;;;29.50;;
17714;SDS011;8977;50.902;4.314;2023-02-15T00:49:02;40.13;;;27.23;;
17714;SDS011;8977;50.902;4.314;2023-02-15T00:51:29;46.88;;;32.00;;
17714;SDS011;8977;50.902;4.314;2023-02-15T00:53:56;41.73;;;28.20;;
17714;SDS011;8977;50.902;4.314;2023-02-15T00:56:24;43.53;;;28.90;;
17714;SDS011;8977;50.902;4.314;2023-02-15T00:58:54;48.13;;;27.87;;
17714;SDS011;8977;50.902;4.314;2023-02-15T01:01:21;41.67;;;27.63;;
17714;SDS011;8977;50.902;4.314;2023-02-15T01:03:48;39.77;;;27.00;;
17714;SDS011;8977;50.902;4.314;2023-02-15T01:06:15;45.83;;;27.63;;
17714;SDS011;8977;50.902;4.314;2023-02-15T01:08:43;40.20;;;27.00;;
17714;SDS011;8977;50.902;4.314;2023-02-15T01:11:12;39.73;;;28.73;;
17714;SDS011;8977;50.902;4.314;2023-02-15T01:13:40;38.73;;;26.57;;
17714;SDS011;8977;50.902;4.314;2023-02-15T01:16:09;39.40;;;26.73;;
17714;SDS011;8977;50.902;4.314;2023-02-15T01:18:36;38.73;;;27.63;;
17714;SDS011;8977;50.902;4.314;2023-02-15T01:21:08;41.83;;;27.37;;
17714;SDS011;8977;50.902;4.314;2023-02-15T01:23:37;38.73;;;26.27;;
17714;SDS011;8977;50.902;4.314;2023-02-15T01:26:05;42.77;;;27.53;;
17714;SDS011;8977;50.902;4.314;2023-02-15T01:28:32;45.37;;;28.27;;
17714;SDS011;8977;50.902;4.314;2023-02-15T01:30:58;41.50;;;27.77;;
17714;SDS011;8977;50.902;4.314;2023-02-15T01:33:31;37.73;;;27.10;;
17714;SDS011;8977;50.902;4.314;2023-02-15T01:35:58;41.90;;;26.60;;
17714;SDS011;8977;50.902;4.314;2023-02-15T01:38:25;40.17;;;26.90;;
17714;SDS011;8977;50.902;4.314;2023-02-15T01:40:52;37.57;;;26.53;;
17714;SDS011;8977;50.902;4.314;2023-02-15T01:43:40;39.47;;;27.33;;
17714;SDS011;8977;50.902;4.314;2023-02-15T01:46:08;43.17;;;27.50;;
17714;SDS011;8977;50.902;4.314;2023-02-15T01:48:38;36.60;;;26.17;;
17714;SDS011;8977;50.902;4.314;2023-02-15T01:51:09;38.67;;;26.00;;
17714;SDS011;8977;50.902;4.314;2023-02-15T01:53:37;40.20;;;27.47;;
17714;SDS011;8977;50.902;4.314;2023-02-15T01:56:08;40.37;;;26.80;;
17714;SDS011;8977;50.902;4.314;2023-02-15T01:58:36;38.73;;;25.77;;
17714;SDS011;8977;50.902;4.314;2023-02-15T02:01:03;37.10;;;27.53;;
17714;SDS011;8977;50.902;4.314;2023-02-15T02:03:35;37.33;;;26.73;;
17714;SDS011;8977;50.902;4.314;2023-02-15T02:06:08;38.33;;;26.00;;
17714;SDS011;8977;50.902;4.314;2023-02-15T02:08:35;37.70;;;26.63;;
17714;SDS011;8977;50.902;4.314;2023-02-15T02:11:04;36.97;;;26.23;;
17714;SDS011;8977;50.902;4.314;2023-02-15T02:13:36;39.60;;;26.57;;
17714;SDS011;8977;50.902;4.314;2023-02-15T02:16:04;40.37;;;27.97;;
17714;SDS011;8977;50.902;4.314;2023-02-15T02:18:37;39.60;;;27.97;;
17714;SDS011;8977;50.902;4.314;2023-02-15T02:21:34;39.30;;;26.03;;
17714;SDS011;8977;50.902;4.314;2023-02-15T02:33:01;41.93;;;27.40;;
17714;SDS011;8977;50.902;4.314;2023-02-15T02:35:44;36.80;;;25.13;;
17714;SDS011;8977;50.902;4.314;2023-02-15T02:38:19;39.17;;;26.57;;
17714;SDS011;8977;50.902;4.314;2023-02-15T02:40:52;40.27;;;28.73;;
17714;SDS011;8977;50.902;4.314;2023-02-15T02:43:32;40.67;;;27.53;;
17714;SDS011;8977;50.902;4.314;2023-02-15T02:46:05;38.47;;;27.30;;
17714;SDS011;8977;50.902;4.314;2023-02-15T02:48:37;38.40;;;27.17;;
17714;SDS011;8977;50.902;4.314;2023-02-15T02:51:05;37.87;;;26.90;;
17714;SDS011;8977;50.902;4.314;2023-02-15T02:53:31;39.83;;;27.33;;
17714;SDS011;8977;50.902;4.314;2023-02-15T02:56:01;40.67;;;27.97;;
17714;SDS011;8977;50.902;4.314;2023-02-15T02:58:33;39.60;;;26.43;;
17714;SDS011;8977;50.902;4.314;2023-02-15T03:01:05;39.40;;;26.77;;
17714;SDS011;8977;50.902;4.314;2023-02-15T03:03:38;38.90;;;27.40;;
17714;SDS011;8977;50.902;4.314;2023-02-15T03:06:10;38.60;;;26.67;;
17714;SDS011;8977;50.902;4.314;2023-02-15T03:08:44;38.80;;;28.00;;
17714;SDS011;8977;50.902;4.314;2023-02-15T03:11:15;41.30;;;25.77;;
17714;SDS011;8977;50.902;4.314;2023-02-15T03:13:42;39.50;;;27.10;;
17714;SDS011;8977;50.902;4.314;2023-02-15T03:16:11;39.47;;;26.77;;
17714;SDS011;8977;50.902;4.314;2023-02-15T03:18:57;38.00;;;26.93;;
17714;SDS011;8977;50.902;4.314;2023-02-15T03:21:32;36.00;;;26.27;;
17714;SDS011;8977;50.902;4.314;2023-02-15T03:24:06;39.60;;;26.67;;
17714;SDS011;8977;50.902;4.314;2023-02-15T03:26:36;33.80;;;25.70;;
17714;SDS011;8977;50.902;4.314;2023-02-15T03:29:05;40.77;;;27.67;;
17714;SDS011;8977;50.902;4.314;2023-02-15T03:31:35;38.27;;;26.23;;
17714;SDS011;8977;50.902;4.314;2023-02-15T03:34:09;38.47;;;27.27;;
17714;SDS011;8977;50.902;4.314;2023-02-15T03:36:39;37.23;;;25.80;;
17714;SDS011;8977;50.902;4.314;2023-02-15T03:39:12;36.40;;;26.00;;
17714;SDS011;8977;50.902;4.314;2023-02-15T03:41:46;40.57;;;26.07;;
17714;SDS011;8977;50.902;4.314;2023-02-15T03:44:18;40.23;;;26.10;;
17714;SDS011;8977;50.902;4.314;2023-02-15T03:46:52;36.57;;;25.43;;
17714;SDS011;8977;50.902;4.314;2023-02-15T03:49:27;39.67;;;25.93;;
17714;SDS011;8977;50.902;4.314;2023-02-15T03:51:59;36.83;;;25.50;;
17714;SDS011;8977;50.902;4.314;2023-02-15T03:54:30;38.80;;;25.97;;
17714;SDS011;8977;50.902;4.314;2023-02-15T03:57:10;36.07;;;24.63;;
17714;SDS011;8977;50.902;4.314;2023-02-15T03:59:56;34.50;;;24.67;;
17714;SDS011;8977;50.902;4.314;2023-02-15T04:02:43;36.30;;;24.83;;
17714;SDS011;8977;50.902;4.314;2023-02-15T04:05:17;38.70;;;25.67;;
17714;SDS011;8977;50.902;4.314;2023-02-15T04:07:44;37.60;;;25.03;;
17714;SDS011;8977;50.902;4.314;2023-02-15T04:10:11;39.60;;;27.10;;
17714;SDS011;8977;50.902;4.314;2023-02-15T04:12:55;38.53;;;24.37;;
17714;SDS011;8977;50.902;4.314;2023-02-15T04:15:22;36.87;;;24.47;;
17714;SDS011;8977;50.902;4.314;2023-02-15T04:18:06;34.20;;;25.00;;
17714;SDS011;8977;50.902;4.314;2023-02-15T04:20:34;34.77;;;25.03;;
17714;SDS011;8977;50.902;4.314;2023-02-15T04:23:18;38.43;;;25.10;;
17714;SDS011;8977;50.902;4.314;2023-02-15T04:26:03;31.83;;;23.80;;
17714;SDS011;8977;50.902;4.314;2023-02-15T04:28:29;36.57;;;24.80;;
17714;SDS011;8977;50.902;4.314;2023-02-15T04:30:56;36.87;;;24.83;;
17714;SDS011;8977;50.902;4.314;2023-02-15T04:33:23;35.13;;;24.23;;
17714;SDS011;8977;50.902;4.314;2023-02-15T04:35:52;39.30;;;23.93;;
17714;SDS011;8977;50.902;4.314;2023-02-15T04:38:19;35.30;;;23.97;;
17714;SDS011;8977;50.902;4.314;2023-02-15T04:40:49;40.60;;;25.87;;
17714;SDS011;8977;50.902;4.314;2023-02-15T04:43:17;35.27;;;23.17;;
17714;SDS011;8977;50.902;4.314;2023-02-15T04:45:47;35.77;;;24.47;;
17714;SDS011;8977;50.902;4.314;2023-02-15T04:48:15;33.67;;;23.83;;
17714;SDS011;8977;50.902;4.314;2023-02-15T04:50:42;33.73;;;24.13;;
17714;SDS011;8977;50.902;4.314;2023-02-15T04:53:10;35.07;;;23.50;;
17714;SDS011;8977;50.902;4.314;2023-02-15T04:55:37;34.33;;;23.63;;
17714;SDS011;8977;50.902;4.314;2023-02-15T04:58:04;33.63;;;23.57;;
17714;SDS011;8977;50.902;4.314;2023-02-15T05:00:31;34.40;;;23.90;;
17714;SDS011;8977;50.902;4.314;2023-02-15T05:02:58;37.10;;;24.27;;
17714;SDS011;8977;50.902;4.314;2023-02-15T05:05:25;34.03;;;24.23;;
17714;SDS011;8977;50.902;4.314;2023-02-15T05:07:51;34.13;;;23.00;;
17714;SDS011;8977;50.902;4.314;2023-02-15T05:10:20;34.00;;;22.87;;
17714;SDS011;8977;50.902;4.314;2023-02-15T05:12:47;34.57;;;24.47;;
17714;SDS011;8977;50.902;4.314;2023-02-15T05:15:14;37.47;;;23.77;;
17714;SDS011;8977;50.902;4.314;2023-02-15T05:17:40;39.53;;;25.37;;
17714;SDS011;8977;50.902;4.314;2023-02-15T05:20:07;35.30;;;23.80;;
17714;SDS011;8977;50.902;4.314;2023-02-15T05:22:35;36.47;;;24.00;;
17714;SDS011;8977;50.902;4.314;2023-02-15T05:25:02;32.43;;;22.70;;
17714;SDS011;8977;50.902;4.314;2023-02-15T05:27:47;34.17;;;23.43;;
17714;SDS011;8977;50.902;4.314;2023-02-15T05:30:32;34.50;;;23.57;;
17714;SDS011;8977;50.902;4.314;2023-02-15T05:32:59;32.80;;;23.40;;
17714;SDS011;8977;50.902;4.314;2023-02-15T05:35:26;35.67;;;23.30;;
17714;SDS011;8977;50.902;4.314;2023-02-15T05:37:52;34.20;;;24.10;;
17714;SDS011;8977;50.902;4.314;2023-02-15T05:40:19;32.67;;;23.60;;
17714;SDS011;8977;50.902;4.314;2023-02-15T05:42:47;31.87;;;22.40;;
17714;SDS011;8977;50.902;4.314;2023-02-15T05:45:14;32.83;;;23.27;;
17714;SDS011;8977;50.902;4.314;2023-02-15T05:47:41;31.80;;;22.40;;
17714;SDS011;8977;50.902;4.314;2023-02-15T05:50:08;30.47;;;21.63;;
17714;SDS011;8977;50.902;4.314;2023-02-15T05:52:36;35.43;;;23.60;;
17714;SDS011;8977;50.902;4.314;2023-02-15T05:55:03;33.63;;;23.10;;
17714;SDS011;8977;50.902;4.314;2023-02-15T05:57:30;38.03;;;23.47;;
17714;SDS011;8977;50.902;4.314;2023-02-15T05:59:58;33.93;;;22.53;;
17714;SDS011;8977;50.902;4.314;2023-02-15T06:02:25;33.23;;;23.00;;
17714;SDS011;8977;50.902;4.314;2023-02-15T06:04:52;40.17;;;23.50;;
17714;SDS011;8977;50.902;4.314;2023-02-15T06:07:19;33.37;;;22.17;;
17714;SDS011;8977;50.902;4.314;2023-02-15T06:09:46;33.73;;;23.00;;
17714;SDS011;8977;50.902;4.314;2023-02-15T06:12:12;33.67;;;23.20;;
17714;SDS011;8977;50.902;4.314;2023-02-15T06:14:39;33.27;;;22.73;;
17714;SDS011;8977;50.902;4.314;2023-02-15T06:17:07;36.87;;;23.90;;
17714;SDS011;8977;50.902;4.314;2023-02-15T06:19:35;33.83;;;23.13;;
17714;SDS011;8977;50.902;4.314;2023-02-15T06:22:02;32.37;;;22.60;;
17714;SDS011;8977;50.902;4.314;2023-02-15T06:24:29;33.77;;;22.50;;
17714;SDS011;8977;50.902;4.314;2023-02-15T06:26:55;33.80;;;22.60;;
17714;SDS011;8977;50.902;4.314;2023-02-15T06:29:22;32.43;;;22.33;;
17714;SDS011;8977;50.902;4.314;2023-02-15T06:31:49;33.73;;;22.40;;
17714;SDS011;8977;50.902;4.314;2023-02-15T06:34:17;32.83;;;23.43;;
17714;SDS011;8977;50.902;4.314;2023-02-15T06:36:44;33.77;;;23.00;;
17714;SDS011;8977;50.902;4.314;2023-02-15T06:39:11;34.67;;;22.50;;
17714;SDS011;8977;50.902;4.314;2023-02-15T06:41:38;33.57;;;22.43;;
17714;SDS011;8977;50.902;4.314;2023-02-15T06:44:05;31.27;;;22.30;;
17714;SDS011;8977;50.902;4.314;2023-02-15T06:46:32;33.93;;;22.97;;
17714;SDS011;8977;50.902;4.314;2023-02-15T06:48:59;32.97;;;22.53;;
17714;SDS011;8977;50.902;4.314;2023-02-15T06:51:27;31.27;;;22.80;;
17714;SDS011;8977;50.902;4.314;2023-02-15T06:53:53;31.23;;;22.43;;
17714;SDS011;8977;50.902;4.314;2023-02-15T06:56:20;32.63;;;23.17;;
17714;SDS011;8977;50.902;4.314;2023-02-15T06:58:47;31.27;;;23.60;;
17714;SDS011;8977;50.902;4.314;2023-02-15T07:01:15;33.60;;;22.70;;
17714;SDS011;8977;50.902;4.314;2023-02-15T07:03:42;29.87;;;21.93;;
17714;SDS011;8977;50.902;4.314;2023-02-15T07:06:09;34.70;;;22.47;;
17714;SDS011;8977;50.902;4.314;2023-02-15T07:08:38;34.73;;;23.33;;
17714;SDS011;8977;50.902;4.314;2023-02-15T07:11:05;32.83;;;23.93;;
17714;SDS011;8977;50.902;4.314;2023-02-15T07:13:50;36.77;;;23.47;;
17714;SDS011;8977;50.902;4.314;2023-02-15T07:16:17;36.17;;;23.73;;
17714;SDS011;8977;50.902;4.314;2023-02-15T07:18:44;35.50;;;24.07;;
17714;SDS011;8977;50.902;4.314;2023-02-15T07:21:11;35.57;;;23.57;;
17714;SDS011;8977;50.902;4.314;2023-02-15T07:23:40;32.97;;;23.93;;
17714;SDS011;8977;50.902;4.314;2023-02-15T07:26:06;33.50;;;23.70;;
17714;SDS011;8977;50.902;4.314;2023-02-15T07:28:34;32.73;;;23.53;;
17714;SDS011;8977;50.902;4.314;2023-02-15T07:31:01;33.03;;;24.40;;
17714;SDS011;8977;50.902;4.314;2023-02-15T07:33:29;36.40;;;24.30;;
17714;SDS011;8977;50.902;4.314;2023-02-15T07:35:57;33.87;;;24.27;;
17714;SDS011;8977;50.902;4.314;2023-02-15T07:38:26;33.33;;;24.73;;
17714;SDS011;8977;50.902;4.314;2023-02-15T07:40:58;37.87;;;23.53;;
17714;SDS011;8977;50.902;4.314;2023-02-15T07:43:25;36.93;;;23.33;;
17714;SDS011;8977;50.902;4.314;2023-02-15T07:45:52;37.83;;;24.53;;
17714;SDS011;8977;50.902;4.314;2023-02-15T07:48:19;32.73;;;21.60;;
17714;SDS011;8977;50.902;4.314;2023-02-15T07:50:45;35.00;;;25.23;;
17714;SDS011;8977;50.902;4.314;2023-02-15T07:53:12;37.00;;;24.10;;
17714;SDS011;8977;50.902;4.314;2023-02-15T07:55:39;37.13;;;23.63;;
17714;SDS011;8977;50.902;4.314;2023-02-15T07:58:07;30.40;;;22.20;;
17714;SDS011;8977;50.902;4.314;2023-02-15T08:00:34;33.30;;;22.77;;
17714;SDS011;8977;50.902;4.314;2023-02-15T08:03:22;38.80;;;23.30;;
17714;SDS011;8977;50.902;4.314;2023-02-15T08:05:54;33.57;;;23.37;;
17714;SDS011;8977;50.902;4.314;2023-02-15T08:08:22;35.60;;;23.07;;
17714;SDS011;8977;50.902;4.314;2023-02-15T08:10:58;37.13;;;23.97;;
17714;SDS011;8977;50.902;4.314;2023-02-15T08:13:45;35.53;;;24.00;;
17714;SDS011;8977;50.902;4.314;2023-02-15T08:16:24;42.37;;;24.07;;
17714;SDS011;8977;50.902;4.314;2023-02-15T08:18:53;38.10;;;24.97;;
17714;SDS011;8977;50.902;4.314;2023-02-15T08:21:21;36.93;;;24.00;;
17714;SDS011;8977;50.902;4.314;2023-02-15T08:23:48;36.97;;;24.50;;
17714;SDS011;8977;50.902;4.314;2023-02-15T08:26:15;35.40;;;24.07;;
17714;SDS011;8977;50.902;4.314;2023-02-15T08:28:42;38.10;;;25.53;;
17714;SDS011;8977;50.902;4.314;2023-02-15T08:31:11;42.63;;;24.07;;
17714;SDS011;8977;50.902;4.314;2023-02-15T08:33:40;39.73;;;24.23;;
17714;SDS011;8977;50.902;4.314;2023-02-15T08:36:08;40.30;;;24.30;;
17714;SDS011;8977;50.902;4.314;2023-02-15T08:38:37;37.10;;;24.60;;
17714;SDS011;8977;50.902;4.314;2023-02-15T08:41:11;36.80;;;24.73;;
17714;SDS011;8977;50.902;4.314;2023-02-15T08:43:39;32.13;;;22.97;;
17714;SDS011;8977;50.902;4.314;2023-02-15T08:46:07;35.70;;;24.00;;
17714;SDS011;8977;50.902;4.314;2023-02-15T08:48:35;39.20;;;24.90;;
17714;SDS011;8977;50.902;4.314;2023-02-15T08:51:06;36.37;;;24.07;;
17714;SDS011;8977;50.902;4.314;2023-02-15T08:53:35;40.67;;;24.43;;
17714;SDS011;8977;50.902;4.314;2023-02-15T08:56:03;39.40;;;23.07;;
17714;SDS011;8977;50.902;4.314;2023-02-15T08:58:30;36.83;;;24.60;;
17714;SDS011;8977;50.902;4.314;2023-02-15T09:00:57;35.00;;;23.43;;
17714;SDS011;8977;50.902;4.314;2023-02-15T09:03:25;32.90;;;22.43;;
17714;SDS011;8977;50.902;4.314;2023-02-15T09:05:56;34.53;;;22.60;;
17714;SDS011;8977;50.902;4.314;2023-02-15T09:08:24;34.30;;;22.70;;
17714;SDS011;8977;50.902;4.314;2023-02-15T09:10:51;36.47;;;23.63;;
17714;SDS011;8977;50.902;4.314;2023-02-15T09:13:17;38.40;;;24.30;;
17714;SDS011;8977;50.902;4.314;2023-02-15T09:15:45;33.20;;;22.83;;
17714;SDS011;8977;50.902;4.314;2023-02-15T09:18:12;33.97;;;24.13;;
17714;SDS011;8977;50.902;4.314;2023-02-15T09:20:43;43.00;;;26.03;;
17714;SDS011;8977;50.902;4.314;2023-02-15T09:23:10;41.73;;;25.63;;
17714;SDS011;8977;50.902;4.314;2023-02-15T09:25:37;43.80;;;24.87;;
17714;SDS011;8977;50.902;4.314;2023-02-15T09:28:04;48.50;;;26.53;;
17714;SDS011;8977;50.902;4.314;2023-02-15T09:30:31;44.03;;;24.47;;
17714;SDS011;8977;50.902;4.314;2023-02-15T09:32:57;37.50;;;23.70;;
17714;SDS011;8977;50.902;4.314;2023-02-15T09:35:24;35.23;;;23.20;;
17714;SDS011;8977;50.902;4.314;2023-02-15T09:37:52;36.30;;;22.80;;
17714;SDS011;8977;50.902;4.314;2023-02-15T09:40:19;35.00;;;23.60;;
17714;SDS011;8977;50.902;4.314;2023-02-15T09:42:56;31.43;;;22.47;;
17714;SDS011;8977;50.902;4.314;2023-02-15T09:45:51;35.50;;;21.63;;
17714;SDS011;8977;50.902;4.314;2023-02-15T09:48:39;33.47;;;21.20;;
17714;SDS011;8977;50.902;4.314;2023-02-15T09:51:13;29.37;;;21.33;;
17714;SDS011;8977;50.902;4.314;2023-02-15T09:53:54;36.60;;;22.37;;
17714;SDS011;8977;50.902;4.314;2023-02-15T09:56:36;32.43;;;21.77;;
17714;SDS011;8977;50.902;4.314;2023-02-15T09:59:11;36.53;;;21.90;;
17714;SDS011;8977;50.902;4.314;2023-02-15T10:01:48;30.80;;;20.40;;
17714;SDS011;8977;50.902;4.314;2023-02-15T10:04:28;33.07;;;21.87;;
17714;SDS011;8977;50.902;4.314;2023-02-15T10:07:12;28.67;;;20.27;;
17714;SDS011;8977;50.902;4.314;2023-02-15T10:09:55;38.90;;;22.50;;
17714;SDS011;8977;50.902;4.314;2023-02-15T10:12:36;31.77;;;21.83;;
17714;SDS011;8977;50.902;4.314;2023-02-15T10:15:16;29.73;;;20.47;;
17714;SDS011;8977;50.902;4.314;2023-02-15T10:17:55;31.70;;;21.33;;
17714;SDS011;8977;50.902;4.314;2023-02-15T10:20:33;29.37;;;20.00;;
17714;SDS011;8977;50.902;4.314;2023-02-15T10:23:16;33.47;;;22.57;;
17714;SDS011;8977;50.902;4.314;2023-02-15T10:26:03;35.07;;;22.30;;
17714;SDS011;8977;50.902;4.314;2023-02-15T10:28:38;36.47;;;21.57;;
17714;SDS011;8977;50.902;4.314;2023-02-15T10:31:13;30.33;;;21.63;;
17714;SDS011;8977;50.902;4.314;2023-02-15T10:33:49;29.77;;;21.13;;
17714;SDS011;8977;50.902;4.314;2023-02-15T10:36:32;32.20;;;21.50;;
17714;SDS011;8977;50.902;4.314;2023-02-15T10:39:17;37.23;;;21.87;;
17714;SDS011;8977;50.902;4.314;2023-02-15T10:41:53;39.23;;;22.77;;
17714;SDS011;8977;50.902;4.314;2023-02-15T10:44:33;34.40;;;22.03;;
17714;SDS011;8977;50.902;4.314;2023-02-15T10:47:13;35.17;;;22.43;;
17714;SDS011;8977;50.902;4.314;2023-02-15T10:50:03;30.47;;;21.57;;
17714;SDS011;8977;50.902;4.314;2023-02-15T10:52:42;35.20;;;23.33;;
17714;SDS011;8977;50.902;4.314;2023-02-15T10:55:24;33.33;;;22.20;;
17714;SDS011;8977;50.902;4.314;2023-02-15T10:57:59;36.43;;;22.70;;
17714;SDS011;8977;50.902;4.314;2023-02-15T11:00:33;37.13;;;23.23;;
17714;SDS011;8977;50.902;4.314;2023-02-15T11:03:10;33.20;;;22.27;;
17714;SDS011;8977;50.902;4.314;2023-02-15T11:06:01;35.00;;;21.57;;
17714;SDS011;8977;50.902;4.314;2023-02-15T11:08:31;36.83;;;21.83;;
17714;SDS011;8977;50.902;4.314;2023-02-15T11:11:02;36.13;;;23.00;;
17714;SDS011;8977;50.902;4.314;2023-02-15T11:13:34;33.07;;;21.40;;
17714;SDS011;8977;50.902;4.314;2023-02-15T11:16:06;33.67;;;23.10;;
17714;SDS011;8977;50.902;4.314;2023-02-15T11:18:40;35.73;;;22.40;;
17714;SDS011;8977;50.902;4.314;2023-02-15T11:21:09;33.20;;;21.67;;
17714;SDS011;8977;50.902;4.314;2023-02-15T11:23:44;33.73;;;22.43;;
17714;SDS011;8977;50.902;4.314;2023-02-15T11:26:12;31.33;;;21.87;;
17714;SDS011;8977;50.902;4.314;2023-02-15T11:28:45;32.47;;;22.27;;
17714;SDS011;8977;50.902;4.314;2023-02-15T11:31:17;32.83;;;22.53;;
17714;SDS011;8977;50.902;4.314;2023-02-15T11:33:47;36.47;;;24.00;;
17714;SDS011;8977;50.902;4.314;2023-02-15T11:36:18;31.13;;;21.77;;
17714;SDS011;8977;50.902;4.314;2023-02-15T11:38:49;31.27;;;22.40;;
17714;SDS011;8977;50.902;4.314;2023-02-15T11:41:21;34.67;;;23.17;;
17714;SDS011;8977;50.902;4.314;2023-02-15T11:43:54;31.87;;;23.00;;
17714;SDS011;8977;50.902;4.314;2023-02-15T11:46:26;35.27;;;23.63;;
17714;SDS011;8977;50.902;4.314;2023-02-15T11:48:53;36.70;;;23.67;;
17714;SDS011;8977;50.902;4.314;2023-02-15T11:51:20;34.73;;;23.77;;
17714;SDS011;8977;50.902;4.314;2023-02-15T11:53:49;35.33;;;23.47;;
17714;SDS011;8977;50.902;4.314;2023-02-15T11:56:16;37.87;;;25.33;;
17714;SDS011;8977;50.902;4.314;2023-02-15T11:58:47;35.97;;;25.47;;
17714;SDS011;8977;50.902;4.314;2023-02-15T12:01:21;39.67;;;24.70;;
17714;SDS011;8977;50.902;4.314;2023-02-15T12:03:53;38.07;;;24.63;;
17714;SDS011;8977;50.902;4.314;2023-02-15T12:06:24;36.63;;;24.00;;
17714;SDS011;8977;50.902;4.314;2023-02-15T12:08:55;37.03;;;24.53;;
17714;SDS011;8977;50.902;4.314;2023-02-15T12:11:29;34.87;;;24.73;;
17714;SDS011;8977;50.902;4.314;2023-02-15T12:14:00;35.50;;;25.03;;
17714;SDS011;8977;50.902;4.314;2023-02-15T12:16:31;38.27;;;25.37;;
17714;SDS011;8977;50.902;4.314;2023-02-15T12:19:01;36.03;;;24.30;;
17714;SDS011;8977;50.902;4.314;2023-02-15T12:21:29;35.87;;;24.27;;
17714;SDS011;8977;50.902;4.314;2023-02-15T12:24:01;37.07;;;25.40;;
17714;SDS011;8977;50.902;4.314;2023-02-15T12:26:35;35.80;;;25.10;;
17714;SDS011;8977;50.902;4.314;2023-02-15T12:29:06;40.03;;;27.20;;
17714;SDS011;8977;50.902;4.314;2023-02-15T12:31:40;37.87;;;26.63;;
17714;SDS011;8977;50.902;4.314;2023-02-15T12:34:11;40.60;;;27.13;;
17714;SDS011;8977;50.902;4.314;2023-02-15T12:36:43;34.50;;;24.33;;
17714;SDS011;8977;50.902;4.314;2023-02-15T12:39:19;38.73;;;25.20;;
17714;SDS011;8977;50.902;4.314;2023-02-15T12:41:58;39.37;;;25.83;;
17714;SDS011;8977;50.902;4.314;2023-02-15T12:44:29;38.37;;;25.67;;
17714;SDS011;8977;50.902;4.314;2023-02-15T12:47:00;38.40;;;25.83;;
17714;SDS011;8977;50.902;4.314;2023-02-15T12:49:29;38.67;;;26.00;;
17714;SDS011;8977;50.902;4.314;2023-02-15T12:51:57;37.80;;;25.03;;
17714;SDS011;8977;50.902;4.314;2023-02-15T12:54:30;35.53;;;25.77;;
17714;SDS011;8977;50.902;4.314;2023-02-15T12:57:12;37.37;;;25.97;;
17714;SDS011;8977;50.902;4.314;2023-02-15T12:59:47;39.77;;;26.00;;
17714;SDS011;8977;50.902;4.314;2023-02-15T13:02:21;41.13;;;26.90;;
17714;SDS011;8977;50.902;4.314;2023-02-15T13:04:53;35.67;;;25.90;;
17714;SDS011;8977;50.902;4.314;2023-02-15T13:07:22;40.67;;;28.03;;
17714;SDS011;8977;50.902;4.314;2023-02-15T13:09:51;35.53;;;25.67;;
17714;SDS011;8977;50.902;4.314;2023-02-15T13:12:20;36.67;;;25.13;;
17714;SDS011;8977;50.902;4.314;2023-02-15T13:14:49;34.40;;;25.70;;
17714;SDS011;8977;50.902;4.314;2023-02-15T13:17:21;40.13;;;25.57;;
17714;SDS011;8977;50.902;4.314;2023-02-15T13:19:54;40.27;;;28.10;;
17714;SDS011;8977;50.902;4.314;2023-02-15T13:22:25;39.53;;;27.50;;
17714;SDS011;8977;50.902;4.314;2023-02-15T13:24:58;41.40;;;26.90;;
17714;SDS011;8977;50.902;4.314;2023-02-15T13:27:32;37.93;;;26.37;;
17714;SDS011;8977;50.902;4.314;2023-02-15T13:30:03;36.27;;;25.70;;
17714;SDS011;8977;50.902;4.314;2023-02-15T13:32:39;36.37;;;25.00;;
17714;SDS011;8977;50.902;4.314;2023-02-15T13:35:10;41.33;;;28.30;;
17714;SDS011;8977;50.902;4.314;2023-02-15T13:37:52;39.53;;;28.40;;
17714;SDS011;8977;50.902;4.314;2023-02-15T13:40:37;39.90;;;26.40;;
17714;SDS011;8977;50.902;4.314;2023-02-15T13:43:13;43.57;;;27.47;;
17714;SDS011;8977;50.902;4.314;2023-02-15T13:45:52;35.83;;;25.57;;
17714;SDS011;8977;50.902;4.314;2023-02-15T13:48:28;36.33;;;25.67;;
17714;SDS011;8977;50.902;4.314;2023-02-15T13:51:07;36.17;;;25.07;;
17714;SDS011;8977;50.902;4.314;2023-02-15T13:53:46;40.70;;;27.07;;
17714;SDS011;8977;50.902;4.314;2023-02-15T13:56:35;38.10;;;26.30;;
17714;SDS011;8977;50.902;4.314;2023-02-15T13:59:24;37.00;;;25.77;;
17714;SDS011;8977;50.902;4.314;2023-02-15T14:02:23;36.43;;;24.67;;
17714;SDS011;8977;50.902;4.314;2023-02-15T14:05:20;34.43;;;24.40;;
17714;SDS011;8977;50.902;4.314;2023-02-15T14:08:00;36.40;;;23.53;;
17714;SDS011;8977;50.902;4.314;2023-02-15T14:10:39;36.40;;;25.70;;
17714;SDS011;8977;50.902;4.314;2023-02-15T14:16:14;38.27;;;25.90;;
17714;SDS011;8977;50.902;4.314;2023-02-15T14:18:46;39.27;;;25.93;;
17714;SDS011;8977;50.902;4.314;2023-02-15T14:21:22;34.23;;;25.20;;
17714;SDS011;8977;50.902;4.314;2023-02-15T14:23:59;41.97;;;26.70;;
17714;SDS011;8977;50.902;4.314;2023-02-15T14:26:43;37.73;;;26.60;;
17714;SDS011;8977;50.902;4.314;2023-02-15T14:29:17;40.80;;;26.87;;
17714;SDS011;8977;50.902;4.314;2023-02-15T14:31:52;38.63;;;26.53;;
17714;SDS011;8977;50.902;4.314;2023-02-15T14:34:23;34.57;;;24.87;;
17714;SDS011;8977;50.902;4.314;2023-02-15T14:36:55;38.37;;;25.80;;
17714;SDS011;8977;50.902;4.314;2023-02-15T14:39:26;34.47;;;25.47;;
17714;SDS011;8977;50.902;4.314;2023-02-15T14:42:17;36.70;;;25.20;;
17714;SDS011;8977;50.902;4.314;2023-02-15T14:44:52;35.30;;;24.63;;
17714;SDS011;8977;50.902;4.314;2023-02-15T14:47:25;35.37;;;24.93;;
17714;SDS011;8977;50.902;4.314;2023-02-15T14:49:58;35.90;;;25.40;;
17714;SDS011;8977;50.902;4.314;2023-02-15T14:52:26;34.07;;;23.47;;
17714;SDS011;8977;50.902;4.314;2023-02-15T14:54:57;34.77;;;25.33;;
17714;SDS011;8977;50.902;4.314;2023-02-15T14:57:25;36.57;;;24.97;;
17714;SDS011;8977;50.902;4.314;2023-02-15T14:59:55;38.57;;;25.70;;
17714;SDS011;8977;50.902;4.314;2023-02-15T15:02:24;34.33;;;24.13;;
17714;SDS011;8977;50.902;4.314;2023-02-15T15:04:59;35.60;;;24.40;;
17714;SDS011;8977;50.902;4.314;2023-02-15T15:07:37;34.57;;;24.47;;
17714;SDS011;8977;50.902;4.314;2023-02-15T15:18:53;36.43;;;24.23;;
17714;SDS011;8977;50.902;4.314;2023-02-15T15:27:39;40.27;;;27.67;;